Time;durP1;ratioP1;P1;durP2;ratioP2;P2;SDS_P1;SDS_P2;PMS_P1;PMS_P2;Temp;Humidity;BMP_temperature;BMP_pressure;BME280_temperature;BME280_humidity;BME280_pressure;Samples;Min_cycle;Max_cycle;Signal;HPM_P1;HPM_P2
2023/08/09 00:02:05;;;;;;;4.47;1.60;;;;;;;14.56;100.00;100097.19;5052867;28;20087;-77
2023/08/09 00:04:31;;;;;;;3.80;1.55;;;;;;;14.57;100.00;100098.78;5054875;28;20033;-77
2023/08/09 00:06:56;;;;;;;1.55;1.38;;;;;;;14.55;100.00;100104.25;5054981;28;20053;-78
2023/08/09 00:09:22;;;;;;;2.85;1.65;;;;;;;14.57;100.00;100110.28;5054976;28;20051;-77
2023/08/09 00:11:47;;;;;;;2.33;1.60;;;;;;;14.62;100.00;100108.72;5054662;28;20029;-77
2023/08/09 00:14:13;;;;;;;3.38;1.50;;;;;;;14.65;100.00;100114.22;5054661;28;20025;-77
2023/08/09 00:16:38;;;;;;;2.70;1.60;;;;;;;14.61;100.00;100119.44;5053048;28;20492;-78
2023/08/09 00:19:04;;;;;;;3.28;1.92;;;;;;;14.69;100.00;100131.19;5054272;28;20068;-78
2023/08/09 00:21:29;;;;;;;3.65;1.23;;;;;;;14.75;100.00;100129.09;5053510;28;20062;-77
2023/08/09 00:23:55;;;;;;;5.78;2.25;;;;;;;14.78;100.00;100131.69;5053746;28;20028;-78
2023/08/09 00:26:20;;;;;;;2.65;1.83;;;;;;;14.81;100.00;100135.63;5054217;28;20035;-77
2023/08/09 00:28:46;;;;;;;2.92;1.80;;;;;;;14.80;100.00;100128.28;5054364;28;20017;-76
2023/08/09 00:31:12;;;;;;;2.72;1.60;;;;;;;14.74;100.00;100113.13;5053863;28;20032;-78
2023/08/09 00:33:38;;;;;;;3.08;1.90;;;;;;;14.79;100.00;100121.75;5052907;28;20029;-78
2023/08/09 00:36:03;;;;;;;6.70;1.88;;;;;;;14.77;100.00;100126.47;5052413;28;20083;-77
2023/08/09 00:38:29;;;;;;;4.03;1.88;;;;;;;14.75;100.00;100124.13;5050529;28;20021;-76
2023/08/09 00:40:54;;;;;;;2.42;1.83;;;;;;;14.76;100.00;100134.31;5051426;28;20036;-77
2023/08/09 00:43:20;;;;;;;3.33;1.70;;;;;;;14.70;100.00;100121.25;5052298;28;20051;-78
2023/08/09 00:45:47;;;;;;;6.05;1.90;;;;;;;14.63;100.00;100131.19;5053779;28;20386;-78
2023/08/09 00:48:12;;;;;;;2.85;1.75;;;;;;;14.58;100.00;100140.59;5053951;28;20028;-77
2023/08/09 00:50:39;;;;;;;3.25;2.05;;;;;;;14.55;100.00;100138.75;5054130;28;20040;-77
2023/08/09 00:53:05;;;;;;;2.28;1.65;;;;;;;14.52;100.00;100139.03;5054175;28;20131;-76
2023/08/09 00:55:30;;;;;;;2.47;1.98;;;;;;;14.51;100.00;100141.13;5053827;28;20477;-77
2023/08/09 00:57:55;;;;;;;3.78;2.10;;;;;;;14.53;100.00;100132.00;5053447;28;20390;-77
2023/08/09 01:00:21;;;;;;;3.85;2.45;;;;;;;14.53;100.00;100129.88;5052387;28;20537;-77
2023/08/09 01:02:46;;;;;;;1.95;1.70;;;;;;;14.57;100.00;100138.25;5033947;28;20381;-77
2023/08/09 01:05:12;;;;;;;4.57;1.95;;;;;;;14.53;100.00;100121.25;5050127;28;20033;-78
2023/08/09 01:07:53;;;;;;;5.10;1.67;;;;;;;14.59;100.00;100136.44;5051583;28;20501;-78
2023/08/09 01:10:34;;;;;;;3.78;2.13;;;;;;;14.59;100.00;100141.41;5050377;28;20345;-77
2023/08/09 01:13:03;;;;;;;;;;;;;;;14.59;100.00;100139.31;5050470;28;20109;-78
2023/08/09 01:15:32;;;;;;;6.57;2.33;;;;;;;14.54;100.00;100139.28;5051588;28;19909;-78
2023/08/09 01:17:57;;;;;;;4.43;1.90;;;;;;;14.62;100.00;100143.25;5033978;28;20029;-78
2023/08/09 01:20:24;;;;;;;3.30;1.77;;;;;;;14.64;100.00;100137.72;5052131;28;20025;-77
2023/08/09 01:22:59;;;;;;;2.53;1.80;;;;;;;14.69;100.00;100142.69;5034329;28;20534;-78
2023/08/09 01:25:25;;;;;;;2.13;1.70;;;;;;;14.65;100.00;100133.56;5051009;28;20024;-78
2023/08/09 01:27:51;;;;;;;6.95;1.80;;;;;;;14.65;100.00;100139.31;5033417;28;20028;-77
2023/08/09 01:30:16;;;;;;;3.28;2.00;;;;;;;14.63;100.00;100136.94;5033451;28;20074;-76
2023/08/09 01:32:41;;;;;;;4.32;1.90;;;;;;;14.60;100.00;100134.34;5049804;28;20437;-77
2023/08/09 01:35:07;;;;;;;4.78;2.22;;;;;;;14.59;100.00;100144.28;5048809;28;20115;-78
2023/08/09 01:37:45;;;;;;;3.75;2.03;;;;;;;14.55;100.00;100137.97;5050412;28;20458;-77
2023/08/09 01:40:12;;;;;;;2.60;2.10;;;;;;;14.55;100.00;100147.41;5051867;28;20516;-77
2023/08/09 01:42:39;;;;;;;4.00;2.28;;;;;;;14.51;100.00;100143.22;5051986;28;20492;-77
2023/08/09 01:45:08;;;;;;;6.55;2.35;;;;;;;14.42;100.00;100139.31;5052260;28;20021;-77
2023/08/09 01:47:34;;;;;;;4.20;2.58;;;;;;;14.38;100.00;100135.91;5053301;28;20032;-77
2023/08/09 01:50:00;;;;;;;3.83;1.75;;;;;;;14.39;100.00;100137.47;5053179;28;20045;-76
2023/08/09 01:52:25;;;;;;;5.57;2.53;;;;;;;14.36;100.00;100132.78;5052973;28;20120;-77
2023/08/09 01:54:50;;;;;;;7.28;2.33;;;;;;;14.29;100.00;100124.66;5053174;28;20135;-77
2023/08/09 01:57:16;;;;;;;4.47;2.08;;;;;;;14.32;100.00;100129.38;5035106;28;20032;-77
2023/08/09 01:59:42;;;;;;;3.10;2.10;;;;;;;14.29;100.00;100121.78;5051763;28;20025;-77
2023/08/09 02:02:07;;;;;;;4.43;2.42;;;;;;;14.28;100.00;100125.97;5052761;28;20045;-77
2023/08/09 02:04:33;;;;;;;3.28;1.80;;;;;;;14.23;100.00;100126.75;5051766;28;20367;-76
2023/08/09 02:06:59;;;;;;;2.67;1.70;;;;;;;14.21;100.00;100129.38;5051624;28;20023;-77
2023/08/09 02:09:26;;;;;;;4.80;2.05;;;;;;;14.16;100.00;100127.28;5051898;28;20024;-77
2023/08/09 02:11:53;;;;;;;4.57;2.30;;;;;;;14.10;100.00;100117.09;5052981;28;20083;-76
2023/08/09 02:14:18;;;;;;;6.25;2.60;;;;;;;14.15;100.00;100122.06;5053257;28;20036;-77
2023/08/09 02:16:43;;;;;;;4.00;2.05;;;;;;;14.17;100.00;100128.09;5052706;28;20021;-79
2023/08/09 02:19:09;;;;;;;6.03;2.70;;;;;;;14.16;100.00;100127.28;5053029;28;20065;-78
2023/08/09 02:21:37;;;;;;;5.38;2.05;;;;;;;14.08;100.00;100111.88;5052887;28;20029;-77
2023/08/09 02:24:03;;;;;;;6.70;2.25;;;;;;;14.11;100.00;100125.19;5052766;28;20462;-76
2023/08/09 02:26:29;;;;;;;6.13;2.25;;;;;;;14.12;100.00;100123.13;5053303;28;20032;-78
2023/08/09 02:28:54;;;;;;;6.47;2.35;;;;;;;14.09;100.00;100116.31;5052689;28;20021;-77
2023/08/09 02:31:19;;;;;;;2.95;2.08;;;;;;;14.07;100.00;100123.91;5052921;28;20043;-77
2023/08/09 02:33:45;;;;;;;4.80;1.70;;;;;;;14.04;100.00;100122.84;5052638;28;20025;-77
2023/08/09 02:36:11;;;;;;;3.88;2.20;;;;;;;14.01;100.00;100125.97;5052498;28;20060;-76
2023/08/09 02:38:37;;;;;;;3.40;2.10;;;;;;;13.97;100.00;100126.25;5052829;28;20104;-77
2023/08/09 02:41:04;;;;;;;3.03;2.30;;;;;;;13.93;100.00;100128.59;5052777;28;20060;-77
2023/08/09 02:43:29;;;;;;;6.03;2.42;;;;;;;13.89;100.00;100134.56;5053441;28;20031;-77
2023/08/09 02:45:55;;;;;;;2.72;1.80;;;;;;;13.84;100.00;100140.31;5052927;28;20112;-77
2023/08/09 02:48:21;;;;;;;5.45;2.67;;;;;;;13.77;100.00;100137.97;5054973;28;20016;-77
2023/08/09 02:50:46;;;;;;;2.55;2.35;;;;;;;13.69;100.00;100148.41;5055080;28;20021;-77
2023/08/09 02:53:12;;;;;;;3.63;2.05;;;;;;;13.61;100.00;100141.56;5038297;28;20454;-77
2023/08/09 02:55:38;;;;;;;2.70;2.28;;;;;;;13.55;100.00;100148.09;5038295;28;20021;-76
2023/08/09 02:58:04;;;;;;;3.53;2.30;;;;;;;13.48;100.00;100144.91;5056033;28;20112;-77
2023/08/09 03:00:30;;;;;;;4.40;2.40;;;;;;;13.38;100.00;100150.09;5055900;28;20094;-77
2023/08/09 03:02:56;;;;;;;4.80;2.35;;;;;;;13.30;100.00;100143.28;5055895;28;20474;-76
2023/08/09 03:05:21;;;;;;;5.05;2.15;;;;;;;13.25;100.00;100146.91;5055687;28;20042;-78
2023/08/09 03:07:47;;;;;;;5.43;1.67;;;;;;;13.16;100.00;100149.22;5054701;28;20051;-77
2023/08/09 03:10:12;;;;;;;4.20;2.10;;;;;;;13.05;100.00;100156.47;5055682;28;20470;-77
2023/08/09 03:12:38;;;;;;;4.50;2.45;;;;;;;12.95;100.00;100157.19;5055731;28;20060;-77
2023/08/09 03:15:04;;;;;;;3.88;2.80;;;;;;;12.82;100.00;100156.84;5054553;28;20028;-78
2023/08/09 03:17:30;;;;;;;14.55;3.25;;;;;;;12.75;100.00;100160.97;5054650;28;20075;-77
2023/08/09 03:19:56;;;;;;;5.05;3.13;;;;;;;12.68;100.00;100165.13;5055578;28;20382;-77
2023/08/09 03:22:23;;;;;;;6.47;2.85;;;;;;;12.62;100.00;100172.09;5037520;28;20032;-77
2023/08/09 03:24:48;;;;;;;4.25;2.28;;;;;;;12.55;100.00;100179.09;5037578;28;20029;-78
2023/08/09 03:27:14;;;;;;;6.55;2.38;;;;;;;12.52;100.00;100180.13;5037463;28;20086;-77
2023/08/09 03:29:39;;;;;;;4.88;2.45;;;;;;;12.48;100.00;100181.66;5055570;28;20052;-77
2023/08/09 03:32:05;;;;;;;4.10;2.25;;;;;;;12.49;100.00;100188.97;5055551;28;20078;-77
2023/08/09 03:34:30;;;;;;;4.63;2.25;;;;;;;12.47;100.00;100195.19;5053786;28;20037;-76
2023/08/09 03:36:56;;;;;;;5.78;2.45;;;;;;;12.44;100.00;100189.69;5055205;28;20028;-78
2023/08/09 03:39:21;;;;;;;4.47;2.80;;;;;;;12.44;100.00;100196.22;5053750;28;20029;-76
2023/08/09 03:41:47;;;;;;;4.15;2.50;;;;;;;12.44;100.00;100198.28;5053968;28;20038;-78
2023/08/09 03:44:13;;;;;;;4.38;2.50;;;;;;;12.42;100.00;100187.34;5054968;28;20036;-77
2023/08/09 03:46:39;;;;;;;5.18;2.55;;;;;;;12.43;100.00;100193.84;5055190;28;20029;-77
2023/08/09 03:49:04;;;;;;;4.43;2.58;;;;;;;12.45;100.00;100194.16;5053560;28;20051;-77
2023/08/09 03:51:30;;;;;;;5.63;2.42;;;;;;;12.50;100.00;100181.94;5055208;28;20057;-78
2023/08/09 03:53:55;;;;;;;5.60;2.33;;;;;;;12.56;100.00;100169.19;5055178;28;20048;-79
2023/08/09 03:56:21;;;;;;;2.85;2.20;;;;;;;12.60;100.00;100160.38;5053605;28;20482;-78
2023/08/09 03:58:47;;;;;;;3.97;2.08;;;;;;;12.63;100.00;100156.47;5053061;28;20029;-78
2023/08/09 04:01:12;;;;;;;5.88;2.10;;;;;;;12.70;100.00;100158.88;5054625;28;20142;-78
2023/08/09 04:03:40;;;;;;;4.97;2.55;;;;;;;12.73;100.00;100151.34;5054962;28;20028;-78
2023/08/09 04:06:06;;;;;;;5.15;2.53;;;;;;;12.70;100.00;100142.44;5055060;28;20098;-78
2023/08/09 04:08:31;;;;;;;3.92;2.47;;;;;;;12.79;100.00;100138.63;5055148;28;20021;-76
2023/08/09 04:10:57;;;;;;;5.68;2.20;;;;;;;12.83;100.00;100124.81;5054788;28;20033;-77
2023/08/09 04:13:23;;;;;;;5.18;2.47;;;;;;;12.88;100.00;100126.94;5054462;28;20028;-77
2023/08/09 04:15:48;;;;;;;4.32;2.25;;;;;;;12.97;100.00;100125.91;5054413;28;20090;-76
2023/08/09 04:18:16;;;;;;;6.25;2.58;;;;;;;13.10;100.00;100124.16;5054250;28;20040;-76
2023/08/09 04:20:43;;;;;;;5.47;2.40;;;;;;;13.28;100.00;100125.81;5054454;28;20029;-78
2023/08/09 04:23:08;;;;;;;4.75;2.15;;;;;;;13.44;100.00;100119.31;5053038;28;20032;-77
2023/08/09 04:25:34;;;;;;;5.25;2.35;;;;;;;13.58;100.00;100119.66;5054493;28;20032;-77
2023/08/09 04:27:59;;;;;;;4.72;2.28;;;;;;;13.72;100.00;100113.69;5054332;28;20033;-77
2023/08/09 04:30:25;;;;;;;7.15;2.67;;;;;;;13.81;100.00;100104.03;5054263;28;20386;-76
2023/08/09 04:32:52;;;;;;;2.88;1.92;;;;;;;13.94;100.00;100113.69;5053728;28;20457;-77
2023/08/09 04:35:18;;;;;;;4.10;2.20;;;;;;;14.11;100.00;100119.44;5052389;28;20453;-78
2023/08/09 04:37:43;;;;;;;6.47;2.83;;;;;;;14.20;100.00;100112.66;5051943;28;20039;-77
2023/08/09 04:40:10;;;;;;;6.95;2.90;;;;;;;14.37;100.00;100122.06;5034886;28;20029;-76
2023/08/09 04:42:41;;;;;;;4.70;2.75;;;;;;;14.42;100.00;100110.56;5052891;28;20055;-77
2023/08/09 04:45:13;;;;;;;2.47;1.95;;;;;;;14.56;100.00;100116.53;5053258;28;20040;-78
2023/08/09 04:47:39;;;;;;;4.70;2.08;;;;;;;14.58;100.00;100108.16;5072238;28;20059;-76
2023/08/09 04:50:10;;;;;;;5.43;1.73;;;;;;;14.61;100.00;100110.03;5071824;28;20056;-77
2023/08/09 04:52:37;;;;;;;3.55;2.25;;;;;;;14.62;100.00;100097.22;5088335;28;20032;-78
2023/08/09 04:55:05;;;;;;;3.75;2.00;;;;;;;14.59;100.00;100086.75;5088326;28;20500;-78
2023/08/09 04:57:31;;;;;;;4.40;2.45;;;;;;;14.73;100.00;100105.81;5072762;28;20094;-79
2023/08/09 04:59:58;;;;;;;3.15;1.90;;;;;;;14.78;100.00;100094.28;5071438;28;20424;-78
2023/08/09 05:02:24;;;;;;;2.08;1.83;;;;;;;14.98;100.00;100106.78;5088525;28;20400;-79
2023/08/09 05:04:52;;;;;;;4.60;2.42;;;;;;;15.12;100.00;100111.47;5072672;28;20067;-76
2023/08/09 05:07:18;;;;;;;3.85;2.50;;;;;;;15.23;100.00;100109.28;5073755;28;20108;-78
2023/08/09 05:09:44;;;;;;;3.38;2.60;;;;;;;15.39;100.00;100112.63;5073467;28;20094;-78
2023/08/09 05:12:10;;;;;;;4.93;2.30;;;;;;;15.47;100.00;100114.41;5072095;28;20035;-77
2023/08/09 05:14:35;;;;;;;4.68;2.20;;;;;;;15.48;100.00;100115.97;5071892;28;20033;-78
2023/08/09 05:17:01;;;;;;;2.55;2.08;;;;;;;15.59;100.00;100126.69;5072097;28;20063;-79
2023/08/09 05:19:26;;;;;;;4.78;2.10;;;;;;;15.58;100.00;100117.22;5073396;28;20027;-75
2023/08/09 05:21:51;;;;;;;3.55;1.88;;;;;;;15.61;100.00;100113.31;5072100;28;20099;-84
2023/08/09 05:24:18;;;;;;;5.00;2.20;;;;;;;15.68;100.00;100114.84;5072087;28;20029;-76
2023/08/09 05:26:44;;;;;;;4.50;2.35;;;;;;;15.79;100.00;100117.66;5088856;28;20111;-76
2023/08/09 05:29:10;;;;;;;5.50;1.95;;;;;;;15.88;100.00;100120.22;5073162;28;20044;-77
2023/08/09 05:31:35;;;;;;;4.50;1.70;;;;;;;15.90;100.00;100106.06;5072970;28;20025;-77
2023/08/09 05:34:02;;;;;;;3.85;1.88;;;;;;;16.02;100.00;100093.13;5070395;28;20028;-77
2023/08/09 05:36:27;;;;;;;2.53;1.65;;;;;;;16.29;100.00;100116.50;5072491;28;20035;-76
2023/08/09 05:38:52;;;;;;;6.97;1.90;;;;;;;16.42;100.00;100110.84;5073064;28;20028;-75
2023/08/09 05:41:19;;;;;;;3.90;1.95;;;;;;;16.59;100.00;100114.41;5073379;28;20028;-77
2023/08/09 05:43:47;;;;;;;7.18;2.38;;;;;;;16.63;100.00;100112.00;5073172;28;20036;-77
2023/08/09 05:46:13;;;;;;;6.45;2.25;;;;;;;16.74;100.00;100123.44;5073268;28;20375;-77
2023/08/09 05:48:44;;;;;;;6.93;2.35;;;;;;;16.89;100.00;100118.03;5073304;28;20060;-76
2023/08/09 05:51:10;;;;;;;3.88;1.83;;;;;;;17.03;100.00;100118.91;5072528;28;20124;-76
2023/08/09 05:53:44;;;;;;;3.17;1.77;;;;;;;17.16;100.00;100121.09;5072281;28;20099;-78
2023/08/09 05:56:10;;;;;;;2.85;1.88;;;;;;;17.26;100.00;100120.19;5072473;28;20048;-77
2023/08/09 05:58:35;;;;;;;3.08;1.80;;;;;;;17.38;100.00;100120.84;5088044;28;20052;-78
2023/08/09 06:01:14;;;;;;;2.35;1.60;;;;;;;17.44;100.00;100124.44;5072469;28;20401;-76
2023/08/09 06:03:45;;;;;;;2.33;2.05;;;;;;;17.54;100.00;100119.06;5071836;28;20024;-75
2023/08/09 06:06:20;;;;;;;8.73;2.20;;;;;;;17.49;100.00;100119.94;5071776;28;20031;-76
2023/08/09 06:08:46;;;;;;;1.70;1.55;;;;;;;17.54;100.00;100127.72;5071314;28;20547;-79
2023/08/09 06:11:11;;;;;;;4.10;1.52;;;;;;;17.64;100.00;100126.78;5070747;28;20020;-79
2023/08/09 06:13:36;;;;;;;8.35;1.90;;;;;;;17.75;100.00;100134.53;5069466;28;20048;-79
2023/08/09 06:16:02;;;;;;;3.75;2.05;;;;;;;17.93;100.00;100142.41;5086633;28;20063;-78
2023/08/09 06:18:29;;;;;;;2.80;1.45;;;;;;;18.17;100.00;100142.31;5073125;28;20025;-80
2023/08/09 06:20:56;;;;;;;3.05;1.50;;;;;;;18.38;100.00;100144.59;5074898;28;20500;-81
2023/08/09 06:23:23;;;;;;;4.90;2.03;;;;;;;18.44;100.00;100145.28;5092848;28;20100;-83
2023/08/09 06:25:49;;;;;;;8.82;2.10;;;;;;;18.55;100.00;100145.09;5077141;28;20104;-85
2023/08/09 06:28:20;;;;;;;3.72;2.13;;;;;;;18.51;100.00;100145.44;5076776;28;20096;-83
2023/08/09 06:30:46;;;;;;;2.65;1.95;;;;;;;18.40;100.00;100134.06;5090558;28;20127;-88
2023/08/09 06:33:13;;;;;;;2.28;1.70;;;;;;;18.30;100.00;100124.19;5076789;28;20583;-86
2023/08/09 06:35:38;;;;;;;4.43;2.10;;;;;;;18.26;100.00;100126.63;5075217;28;20017;-87
2023/08/09 06:38:05;;;;;;;6.22;1.98;;;;;;;18.12;100.00;100119.25;5077404;28;20349;-87
2023/08/09 06:40:39;;;;;;;2.83;1.90;;;;;;;18.11;100.00;100132.94;5076966;28;20419;-87
2023/08/09 06:43:06;;;;;;;4.10;1.90;;;;;;;18.12;100.00;100153.97;5076243;28;20029;-84
2023/08/09 06:45:33;;;;;;;4.53;1.90;;;;;;;17.81;100.00;100112.09;5075185;28;20040;-84
2023/08/09 06:48:00;;;;;;;4.47;2.20;;;;;;;17.98;100.00;100144.41;5076429;28;20035;-83
2023/08/09 06:50:27;;;;;;;5.50;2.05;;;;;;;17.99;100.00;100156.78;5074969;28;20469;-81
2023/08/09 06:52:54;;;;;;;7.05;2.22;;;;;;;18.01;100.00;100148.34;5075002;28;20024;-84
2023/08/09 06:55:20;;;;;;;3.65;1.98;;;;;;;18.10;100.00;100162.38;5074481;28;20029;-85
2023/08/09 06:57:45;;;;;;;5.10;1.70;;;;;;;17.83;100.00;100138.38;5074695;28;20373;-84
2023/08/09 07:00:17;;;;;;;4.80;2.38;;;;;;;17.86;100.00;100166.16;5073520;28;20045;-84
2023/08/09 07:02:45;;;;;;;6.10;1.80;;;;;;;17.61;100.00;100179.91;5074186;28;20418;-83
2023/08/09 07:05:15;;;;;;;5.20;2.40;;;;;;;17.35;100.00;100188.34;5073061;28;20038;-85
2023/08/09 07:07:43;;;;;;;3.35;1.90;;;;;;;16.97;100.00;100156.50;5072437;28;20032;-83
2023/08/09 07:10:10;;;;;;;2.00;1.63;;;;;;;16.81;100.00;100180.53;5073709;28;20035;-83
2023/08/09 07:12:35;;;;;;;4.13;1.90;;;;;;;16.70;100.00;100194.31;5072607;28;20059;-83
2023/08/09 07:15:00;;;;;;;3.65;1.88;;;;;;;16.52;100.00;100193.63;5074134;28;20029;-83
2023/08/09 07:17:26;;;;;;;5.63;2.33;;;;;;;16.25;100.00;100170.78;5074569;28;20485;-84
2023/08/09 07:19:51;;;;;;;5.65;2.15;;;;;;;16.44;100.00;100204.19;5075029;28;20099;-85
2023/08/09 07:22:17;;;;;;;4.25;2.00;;;;;;;16.33;100.00;100206.38;5091376;28;20033;-85
2023/08/09 07:24:42;;;;;;;3.80;2.28;;;;;;;16.30;100.00;100211.13;5075974;28;20032;-84
2023/08/09 07:27:08;;;;;;;3.05;2.00;;;;;;;16.22;100.00;100207.22;5075757;28;20021;-84
2023/08/09 07:29:33;;;;;;;4.70;2.53;;;;;;;16.11;100.00;100201.53;5074269;28;20027;-86
2023/08/09 07:31:58;;;;;;;2.72;2.20;;;;;;;15.98;100.00;100184.84;5074201;28;20017;-85
2023/08/09 07:34:24;;;;;;;3.30;2.40;;;;;;;16.08;100.00;100219.91;5075745;28;20465;-85
2023/08/09 07:36:49;;;;;;;3.20;2.05;;;;;;;15.75;100.00;100189.19;5075611;28;20030;-85
2023/08/09 07:39:14;;;;;;;6.38;2.20;;;;;;;15.97;100.00;100219.97;5074119;28;20382;-84
2023/08/09 07:41:40;;;;;;;2.30;1.77;;;;;;;15.92;100.00;100212.13;5075364;28;20032;-87
2023/08/09 07:44:05;;;;;;;5.57;2.25;;;;;;;15.95;100.00;100211.09;5075486;28;20021;-85
2023/08/09 07:46:31;;;;;;;3.58;2.08;;;;;;;16.01;100.00;100215.47;5074168;28;20154;-84
2023/08/09 07:48:56;;;;;;;3.17;1.90;;;;;;;15.97;100.00;100196.91;5075418;28;20542;-84
2023/08/09 07:51:22;;;;;;;4.75;2.30;;;;;;;16.19;100.00;100221.94;5075227;28;20486;-84
2023/08/09 07:53:47;;;;;;;4.22;2.17;;;;;;;15.98;100.00;100193.50;5075100;28;20492;-84
2023/08/09 07:56:14;;;;;;;6.20;2.47;;;;;;;16.16;100.00;100217.22;5075259;28;20028;-85
2023/08/09 07:58:39;;;;;;;5.32;2.08;;;;;;;15.98;100.00;100199.28;5075023;28;20085;-85
2023/08/09 08:01:05;;;;;;;5.13;2.75;;;;;;;16.01;100.00;100211.81;5074817;28;20447;-86
2023/08/09 08:03:31;;;;;;;5.53;2.67;;;;;;;16.10;100.00;100225.94;5079028;28;20434;-84
2023/08/09 08:05:57;;;;;;;3.17;2.00;;;;;;;15.92;100.00;100201.41;5078338;28;20021;-85
2023/08/09 08:08:23;;;;;;;8.45;2.50;;;;;;;15.91;100.00;100217.13;5077966;28;20212;-85
2023/08/09 08:10:48;;;;;;;4.53;2.53;;;;;;;15.96;100.00;100207.66;5076316;28;20090;-86
2023/08/09 08:13:14;;;;;;;6.80;2.60;;;;;;;16.13;100.00;100230.63;5075863;28;20040;-85
2023/08/09 08:15:39;;;;;;;5.30;2.38;;;;;;;15.96;100.00;100204.00;5057774;28;20028;-85
2023/08/09 08:18:05;;;;;;;3.60;2.88;;;;;;;15.99;100.00;100214.47;5074445;28;20035;-85
2023/08/09 08:20:31;;;;;;;3.78;2.53;;;;;;;16.19;100.00;100227.72;5073399;28;20021;-85
2023/08/09 08:22:56;;;;;;;3.70;2.63;;;;;;;16.07;100.00;100213.34;5090180;28;20031;-85
2023/08/09 08:25:22;;;;;;;5.78;3.58;;;;;;;16.20;100.00;100223.50;5090231;28;20027;-86
2023/08/09 08:27:47;;;;;;;5.97;2.42;;;;;;;16.14;100.00;100220.66;5074527;28;20039;-84
2023/08/09 08:30:17;;;;;;;4.10;2.28;;;;;;;16.06;100.00;100208.91;5073059;28;20382;-86
2023/08/09 08:32:44;;;;;;;7.90;2.38;;;;;;;16.01;100.00;100224.13;5073249;28;20032;-85
2023/08/09 08:35:13;;;;;;;4.65;2.67;;;;;;;16.06;100.00;100252.16;5072965;28;20090;-85
2023/08/09 08:37:40;;;;;;;4.03;2.30;;;;;;;15.93;100.00;100228.91;5089629;28;20024;-85
2023/08/09 08:40:17;;;;;;;4.50;2.25;;;;;;;15.79;100.00;100209.88;5073025;28;20039;-85
2023/08/09 08:42:47;;;;;;;6.45;3.00;;;;;;;15.78;100.00;100202.53;5074160;28;20512;-85
2023/08/09 08:45:14;;;;;;;3.97;2.50;;;;;;;16.00;100.00;100244.88;5089438;28;20032;-85
2023/08/09 08:47:41;;;;;;;3.65;2.10;;;;;;;15.96;100.00;100247.22;5056099;28;20027;-85
2023/08/09 08:50:08;;;;;;;3.75;2.45;;;;;;;15.95;100.00;100243.59;5089617;28;20090;-86
2023/08/09 08:52:35;;;;;;;4.22;1.98;;;;;;;15.69;100.00;100202.84;5089588;28;20079;-85
2023/08/09 08:55:01;;;;;;;2.72;1.75;;;;;;;15.68;100.00;100212.78;5089579;28;20025;-85
2023/08/09 08:57:28;;;;;;;4.72;2.05;;;;;;;15.89;100.00;100245.69;5055817;28;20115;-86
2023/08/09 08:59:53;;;;;;;4.78;1.90;;;;;;;15.75;100.00;100226.66;5089285;28;20032;-85
2023/08/09 09:02:19;;;;;;;3.45;1.90;;;;;;;15.90;100.00;100238.63;5072573;28;20024;-85
2023/08/09 09:04:45;;;;;;;6.15;1.90;;;;;;;15.83;100.00;100239.19;5072402;28;20020;-85
2023/08/09 09:07:11;;;;;;;5.13;1.70;;;;;;;15.76;100.00;100227.44;5072579;28;20032;-86
2023/08/09 09:10:05;;;;;;;4.72;1.60;;;;;;;15.84;100.00;100222.69;5089161;28;20095;-83
2023/08/09 09:12:36;;;;;;;5.65;1.95;;;;;;;16.08;100.00;100222.78;5074344;28;20027;-84
2023/08/09 09:15:08;;;;;;;5.43;1.77;;;;;;;16.20;100.00;100220.63;5074889;28;20039;-84
2023/08/09 09:17:44;;;;;;;2.80;1.80;;;;;;;16.28;100.00;100216.63;5089639;28;20032;-84
2023/08/09 09:20:33;;;;;;;3.75;2.17;;;;;;;16.36;100.00;100217.63;5055664;28;20032;-86
2023/08/09 09:23:01;;;;;;;5.47;2.00;;;;;;;16.36;100.00;100202.41;5068150;28;20036;-84
2023/08/09 09:25:27;;;;;;;5.38;2.15;;;;;;;16.47;100.00;100216.75;5077883;28;20028;-84
2023/08/09 09:27:55;;;;;;;5.13;2.35;;;;;;;16.62;100.00;100213.50;5091736;28;20043;-86
2023/08/09 09:30:41;;;;;;;4.40;1.83;;;;;;;16.80;100.00;100204.94;5092567;28;20041;-88
2023/08/09 09:33:08;;;;;;;3.97;2.20;;;;;;;16.83;100.00;100192.34;5074572;28;20040;-83
2023/08/09 09:35:34;;;;;;;3.60;1.88;;;;;;;16.93;100.00;100178.31;5074397;28;20058;-86
2023/08/09 09:38:14;;;;;;;4.47;2.25;;;;;;;17.17;100.00;100197.75;5072692;28;20056;-85
2023/08/09 09:40:42;;;;;;;3.38;2.22;;;;;;;17.36;100.00;100201.47;5074450;28;20086;-83
2023/08/09 09:43:11;;;;;;;3.60;2.28;;;;;;;17.59;100.00;100191.22;5089961;28;20056;-79
2023/08/09 09:45:37;;;;;;;5.70;2.25;;;;;;;17.88;100.00;100194.53;5073813;28;20477;-82
2023/08/09 09:48:05;;;;;;;6.70;2.15;;;;;;;18.08;100.00;100179.53;5073049;28;20056;-83
2023/08/09 09:50:31;;;;;;;12.60;2.75;;;;;;;18.17;100.00;100179.13;5073068;28;20089;-81
2023/08/09 09:52:57;;;;;;;4.80;2.28;;;;;;;18.11;100.00;100172.63;5073917;28;20036;-81
2023/08/09 09:55:32;;;;;;;11.45;2.20;;;;;;;18.00;100.00;100167.00;5071739;28;20044;-82
2023/08/09 09:58:01;;;;;;;10.23;2.47;;;;;;;17.94;100.00;100172.88;5077251;28;20067;-80
2023/08/09 10:00:27;;;;;;;3.40;2.30;;;;;;;17.99;100.00;100174.91;5076888;28;20055;-81
2023/08/09 10:02:54;;;;;;;5.32;2.35;;;;;;;17.89;100.00;100178.72;5076344;28;20477;-81
2023/08/09 10:05:35;;;;;;;3.40;2.67;;;;;;;17.71;100.00;100174.53;5074939;28;20033;-82
2023/08/09 10:08:13;;;;;;;5.50;2.17;;;;;;;17.57;100.00;100179.44;5076197;28;20078;-82
2023/08/09 10:10:47;;;;;;;5.63;2.85;;;;;;;17.45;100.00;100174.34;5076298;28;20099;-83
2023/08/09 10:13:17;;;;;;;7.78;2.45;;;;;;;17.33;100.00;100162.91;5074673;28;20073;-83
2023/08/09 10:15:49;;;;;;;4.97;2.33;;;;;;;17.18;100.00;100173.34;5074910;28;20037;-79
2023/08/09 10:18:27;;;;;;;9.60;2.60;;;;;;;16.98;100.00;100165.94;5075810;28;20071;-79
2023/08/09 10:21:09;;;;;;;3.95;2.30;;;;;;;16.87;100.00;100166.84;5078762;28;20032;-83
2023/08/09 10:23:36;;;;;;;3.95;2.20;;;;;;;16.78;100.00;100164.31;5074532;28;20040;-85
2023/08/09 10:26:03;;;;;;;5.70;2.50;;;;;;;16.43;100.00;100110.31;5074897;28;20029;-85
2023/08/09 10:28:45;;;;;;;8.93;2.65;;;;;;;16.85;100.00;100157.13;5076117;28;20036;-85
2023/08/09 10:31:13;;;;;;;18.98;2.53;;;;;;;16.83;100.00;100163.47;5074326;28;20484;-82
2023/08/09 10:34:03;;;;;;;7.03;2.70;;;;;;;16.76;100.00;100154.63;5076099;28;20032;-84
2023/08/09 10:36:33;;;;;;;3.80;2.40;;;;;;;16.75;100.00;100164.59;5076369;28;20028;-83
2023/08/09 10:38:58;;;;;;;2.72;2.05;;;;;;;16.73;100.00;100162.25;5058208;28;20036;-80
2023/08/09 10:41:27;;;;;;;7.55;1.98;;;;;;;16.70;100.00;100159.69;5078051;28;20036;-86
2023/08/09 10:44:01;;;;;;;8.32;2.33;;;;;;;16.73;100.00;100168.03;5074033;28;20032;-86
2023/08/09 10:46:30;;;;;;;5.68;2.10;;;;;;;16.68;100.00;100165.97;5074783;28;20476;-85
2023/08/09 10:49:00;;;;;;;6.47;2.42;;;;;;;16.79;100.00;100174.53;5057804;28;20535;-84
2023/08/09 10:51:25;;;;;;;4.97;2.70;;;;;;;16.71;100.00;100153.34;5075438;28;20492;-81
2023/08/09 10:54:05;;;;;;;5.70;2.67;;;;;;;16.83;100.00;100172.13;5077984;28;20119;-82
2023/08/09 10:56:45;;;;;;;3.03;2.22;;;;;;;16.89;100.00;100167.09;5076752;28;20039;-81
2023/08/09 10:59:14;;;;;;;3.42;2.42;;;;;;;16.95;100.00;100175.66;5078465;28;20032;-81
2023/08/09 11:01:43;;;;;;;3.42;2.70;;;;;;;16.95;100.00;100169.91;5035429;28;1152876;-81
2023/08/09 11:04:17;;;;;;;3.72;2.38;;;;;;;16.81;100.00;100166.09;5075263;28;20477;-80
2023/08/09 11:06:47;;;;;;;4.55;2.40;;;;;;;16.80;100.00;100167.41;5074914;28;20082;-84
2023/08/09 11:09:16;;;;;;;3.80;2.55;;;;;;;16.87;100.00;100168.94;5077252;28;20484;-81
2023/08/09 11:11:51;;;;;;;5.20;2.47;;;;;;;16.75;100.00;100150.94;5076406;28;20078;-79
2023/08/09 11:14:19;;;;;;;3.20;2.25;;;;;;;16.77;100.00;100150.41;5076187;28;20035;-82
2023/08/09 11:16:46;;;;;;;7.72;2.80;;;;;;;16.88;100.00;100158.97;5074962;28;20035;-81
2023/08/09 11:19:21;;;;;;;5.35;2.75;;;;;;;16.94;100.00;100169.09;5076770;28;20032;-86